createdAt,value
2022-12-03T00:01:55.908Z,2.80
2022-12-03T00:04:23.406Z,3.90
2022-12-03T00:06:53.249Z,2.70
2022-12-03T00:09:23.366Z,3.10
2022-12-03T00:11:50.904Z,2.80
2022-12-03T00:14:25.476Z,2.80
2022-12-03T00:16:56.101Z,4.20
2022-12-03T00:19:24.962Z,2.80
2022-12-03T00:21:53.829Z,3.00
2022-12-03T00:24:21.414Z,2.80
2022-12-03T00:26:51.400Z,2.80
2022-12-03T00:29:18.951Z,4.10
2022-12-03T00:31:46.497Z,2.80
2022-12-03T00:34:15.504Z,3.20
2022-12-03T00:36:43.068Z,3.20
2022-12-03T00:39:10.528Z,2.00
2022-12-03T00:41:38.508Z,3.20
2022-12-03T00:44:08.309Z,2.70
2022-12-03T00:49:20.517Z,4.00
2022-12-03T00:51:48.500Z,3.00
2022-12-03T00:54:15.952Z,2.80
2022-12-03T00:56:43.498Z,2.80
2022-12-03T00:59:12.146Z,3.00
2022-12-03T01:01:43.418Z,2.90
2022-12-03T01:04:11.559Z,2.80
2022-12-03T01:06:40.355Z,2.80
2022-12-03T01:09:08.176Z,2.90
2022-12-03T01:11:41.525Z,2.90
2022-12-03T01:14:16.889Z,2.90
2022-12-03T01:16:45.079Z,2.40
2022-12-03T01:19:16.320Z,2.60
2022-12-03T01:21:49.172Z,4.10
2022-12-03T01:24:18.823Z,2.40
2022-12-03T01:26:46.521Z,2.70
2022-12-03T01:29:18.279Z,2.70
2022-12-03T01:32:03.941Z,2.80
2022-12-03T01:34:32.003Z,3.70
2022-12-03T01:37:00.540Z,2.80
2022-12-03T01:39:32.413Z,2.80
2022-12-03T01:42:00.316Z,3.50
2022-12-03T01:44:32.758Z,2.20
2022-12-03T01:47:03.081Z,3.20
2022-12-03T01:49:54.644Z,2.80
2022-12-03T01:52:30.795Z,2.80
2022-12-03T01:55:00.767Z,3.40
2022-12-03T01:57:35.131Z,2.80
2022-12-03T02:00:03.104Z,2.70
2022-12-03T02:02:33.420Z,2.80
2022-12-03T02:05:18.742Z,2.80
2022-12-03T02:07:46.571Z,2.80
2022-12-03T02:10:15.840Z,2.70
2022-12-03T02:13:07.855Z,2.80
2022-12-03T02:15:39.515Z,2.80
2022-12-03T02:18:09.200Z,2.70
2022-12-03T02:21:26.607Z,2.70
2022-12-03T02:24:24.255Z,2.90
2022-12-03T02:26:52.508Z,3.10
2022-12-03T02:29:19.933Z,2.90
2022-12-03T02:32:11.451Z,2.80
2022-12-03T02:34:46.279Z,2.80
2022-12-03T02:37:37.759Z,2.80
2022-12-03T02:40:12.129Z,2.80
2022-12-03T02:42:44.328Z,2.80
2022-12-03T02:45:25.646Z,3.20
2022-12-03T02:48:14.301Z,2.70
2022-12-03T02:50:57.891Z,2.80
2022-12-03T02:53:27.822Z,2.80
2022-12-03T02:55:58.111Z,3.00
2022-12-03T02:58:31.660Z,2.80
2022-12-03T03:01:03.034Z,3.40
2022-12-03T03:03:33.832Z,2.80
2022-12-03T03:06:07.618Z,2.90
2022-12-03T03:08:37.586Z,2.80
2022-12-03T03:11:07.876Z,2.90
2022-12-03T03:13:39.171Z,2.20
2022-12-03T03:16:08.027Z,2.80
2022-12-03T03:18:36.430Z,2.80
2022-12-03T03:21:04.826Z,3.80
2022-12-03T03:23:44.479Z,2.80
2022-12-03T03:26:14.639Z,3.20
2022-12-03T03:28:49.740Z,2.80
2022-12-03T03:31:21.696Z,2.90
2022-12-03T03:33:50.869Z,3.60
2022-12-03T03:36:19.775Z,2.80
2022-12-03T03:38:47.628Z,2.70
2022-12-03T03:41:17.266Z,3.60
2022-12-03T03:43:46.509Z,2.80
2022-12-03T03:46:14.990Z,3.20
2022-12-03T03:48:43.903Z,3.50
2022-12-03T03:51:12.707Z,2.80
2022-12-03T03:53:43.138Z,3.30
2022-12-03T03:56:12.444Z,2.80
2022-12-03T03:58:39.561Z,2.80
2022-12-03T04:01:07.699Z,3.00
2022-12-03T04:03:35.272Z,2.80
2022-12-03T04:06:04.655Z,3.40
2022-12-03T04:08:32.569Z,2.70
2022-12-03T04:11:18.766Z,4.10
2022-12-03T04:13:46.091Z,2.70
2022-12-03T04:16:14.927Z,2.70
2022-12-03T04:18:45.612Z,3.80
2022-12-03T04:21:37.350Z,1.80
2022-12-03T04:24:08.206Z,2.70
2022-12-03T04:26:54.370Z,2.50
2022-12-03T04:29:22.446Z,2.60
2022-12-03T04:32:08.570Z,2.60
2022-12-03T04:34:54.608Z,3.50
2022-12-03T04:37:25.590Z,2.60
2022-12-03T04:40:33.123Z,2.70
2022-12-03T04:43:01.508Z,2.60
2022-12-03T04:45:30.155Z,2.80
2022-12-03T04:47:57.641Z,2.60
2022-12-03T04:50:25.191Z,2.70
2022-12-03T04:52:52.589Z,2.60
2022-12-03T04:55:22.968Z,2.60
2022-12-03T04:57:51.434Z,3.50
2022-12-03T05:00:19.082Z,4.00
2022-12-03T05:02:46.475Z,2.70
2022-12-03T05:05:17.560Z,3.60
2022-12-03T05:07:50.787Z,2.60
2022-12-03T05:10:18.512Z,2.70
2022-12-03T05:12:46.022Z,3.90
2022-12-03T05:15:18.584Z,2.50
2022-12-03T05:17:46.691Z,2.70
2022-12-03T05:20:33.395Z,2.50
2022-12-03T05:23:02.818Z,3.40
2022-12-03T05:25:32.356Z,2.60
2022-12-03T05:27:59.748Z,2.70
2022-12-03T05:30:27.321Z,2.50
2022-12-03T05:32:54.836Z,2.90
2022-12-03T05:35:25.424Z,2.50
2022-12-03T05:37:55.400Z,2.70
2022-12-03T05:40:23.240Z,2.60
2022-12-03T05:43:01.505Z,2.80
2022-12-03T05:45:40.625Z,2.60
2022-12-03T05:48:11.929Z,2.00
2022-12-03T05:50:41.375Z,3.20
2022-12-03T05:53:17.989Z,2.80
2022-12-03T05:55:45.473Z,3.00
2022-12-03T05:58:12.974Z,2.60
2022-12-03T06:00:42.746Z,2.80
2022-12-03T06:03:11.231Z,2.60
2022-12-03T06:05:38.842Z,2.00
2022-12-03T06:08:06.386Z,2.90
2022-12-03T06:10:33.951Z,2.80
2022-12-03T06:13:02.357Z,2.70
2022-12-03T06:15:35.329Z,2.00
2022-12-03T06:18:09.804Z,2.80
2022-12-03T06:20:57.312Z,3.20
2022-12-03T06:23:29.127Z,2.80
2022-12-03T06:25:58.216Z,1.80
2022-12-03T06:28:25.716Z,2.80
2022-12-03T06:30:56.541Z,2.70
2022-12-03T06:33:24.072Z,2.70
2022-12-03T06:35:54.709Z,2.70
2022-12-03T06:38:25.310Z,2.70
2022-12-03T06:40:56.413Z,2.80
2022-12-03T06:43:31.160Z,2.80
2022-12-03T06:46:01.124Z,2.80
2022-12-03T06:48:28.675Z,4.30
2022-12-03T06:50:57.568Z,2.90
2022-12-03T06:53:26.496Z,3.80
2022-12-03T06:55:54.228Z,2.80
2022-12-03T06:58:24.141Z,2.80
2022-12-03T07:00:56.810Z,2.80
2022-12-03T07:03:25.186Z,2.90
2022-12-03T07:05:52.612Z,2.80
2022-12-03T07:08:22.655Z,3.10
2022-12-03T07:10:51.352Z,2.90
2022-12-03T07:13:18.944Z,2.10
2022-12-03T07:15:47.046Z,1.60
2022-12-03T13:20:07.144Z,6.20
2022-12-03T13:47:26.402Z,6.10
2022-12-03T13:49:56.933Z,6.10
2022-12-03T13:52:25.975Z,6.10
2022-12-03T13:54:55.082Z,6.10
2022-12-03T13:57:22.250Z,6.10
2022-12-03T13:59:49.396Z,6.10
2022-12-03T14:02:16.460Z,6.10
2022-12-03T14:04:43.556Z,6.00
2022-12-03T14:07:10.520Z,6.00
2022-12-03T14:09:37.463Z,6.00
2022-12-03T14:12:23.174Z,6.00
2022-12-03T14:14:50.178Z,5.90
2022-12-03T14:17:17.200Z,5.90
2022-12-03T14:19:45.040Z,5.90
2022-12-03T14:22:12.107Z,5.80
2022-12-03T14:24:40.180Z,5.80
2022-12-03T14:27:07.122Z,5.80
2022-12-03T14:29:34.152Z,5.70
2022-12-03T14:32:01.201Z,5.70
2022-12-03T14:34:28.193Z,5.60
2022-12-03T14:36:55.189Z,5.60
2022-12-03T14:39:22.259Z,5.60
2022-12-03T14:42:07.919Z,5.60
2022-12-03T14:44:34.875Z,5.60
2022-12-03T14:47:01.929Z,5.50
2022-12-03T14:49:28.961Z,5.50
2022-12-03T14:51:56.082Z,5.40
2022-12-03T14:54:23.129Z,5.40
2022-12-03T14:56:50.106Z,5.40
2022-12-03T14:59:17.332Z,5.40
2022-12-03T15:01:44.440Z,5.30
2022-12-03T15:04:11.602Z,5.30
2022-12-03T15:06:38.776Z,5.30
2022-12-03T15:09:06.333Z,5.20
2022-12-03T15:11:33.368Z,5.20
2022-12-03T15:14:00.518Z,5.10
2022-12-03T15:16:27.601Z,5.10
2022-12-03T15:18:54.768Z,5.10
2022-12-03T15:21:21.870Z,5.10
2022-12-03T15:23:48.983Z,5.10
2022-12-03T15:26:15.914Z,5.00
2022-12-03T15:28:47.951Z,4.90
2022-12-03T15:31:15.534Z,4.90
2022-12-03T15:34:22.099Z,4.90
2022-12-03T15:36:50.602Z,4.90
2022-12-03T15:39:18.062Z,4.80
2022-12-03T15:41:45.451Z,4.80
2022-12-03T15:44:12.867Z,4.80
2022-12-03T15:46:40.512Z,4.80
2022-12-03T15:49:10.341Z,4.60
2022-12-03T15:51:38.336Z,4.70
2022-12-03T15:54:08.802Z,6.10
2022-12-03T15:56:37.862Z,4.70
2022-12-03T15:59:05.573Z,4.70
2022-12-03T16:01:37.358Z,4.60
2022-12-03T16:04:06.984Z,5.20
2022-12-03T16:06:34.991Z,4.60
2022-12-03T16:09:02.314Z,4.70
2022-12-03T16:11:29.985Z,4.60
2022-12-03T16:13:57.129Z,4.50
2022-12-03T16:16:24.867Z,4.60
2022-12-03T16:18:52.393Z,4.50
2022-12-03T16:21:24.978Z,4.50
2022-12-03T16:23:54.387Z,4.50
2022-12-03T16:26:27.981Z,4.70
2022-12-03T16:28:55.376Z,4.40
2022-12-03T16:31:23.122Z,4.00
2022-12-03T16:33:54.815Z,4.50
2022-12-03T16:36:22.328Z,4.40
2022-12-03T16:38:51.134Z,3.70
2022-12-03T16:41:19.202Z,4.40
2022-12-03T16:43:48.995Z,5.00
2022-12-03T16:46:19.006Z,5.10
2022-12-03T16:48:48.163Z,5.40
2022-12-03T16:51:16.455Z,3.10
2022-12-03T16:53:43.980Z,4.40
2022-12-03T16:56:12.231Z,4.30
2022-12-03T16:58:39.527Z,4.30
2022-12-03T17:01:08.140Z,4.30
2022-12-03T17:03:35.451Z,3.90
2022-12-03T17:06:03.607Z,5.40
2022-12-03T17:08:30.850Z,4.30
2022-12-03T17:10:59.931Z,4.60
2022-12-03T17:13:27.570Z,4.40
2022-12-03T17:15:55.352Z,4.30
2022-12-03T17:18:25.488Z,4.30
2022-12-03T17:20:52.775Z,5.20
2022-12-03T17:23:20.310Z,4.20
2022-12-03T17:25:47.869Z,4.80
2022-12-03T17:28:15.143Z,5.30
2022-12-03T17:30:44.650Z,4.20
2022-12-03T17:33:12.545Z,3.40
2022-12-03T17:35:43.538Z,4.20
2022-12-03T17:38:11.874Z,4.10
2022-12-03T17:40:39.437Z,4.40
2022-12-03T17:43:06.748Z,4.10
2022-12-03T17:45:36.666Z,4.10
2022-12-03T17:48:04.349Z,4.10
2022-12-03T17:50:32.137Z,4.10
2022-12-03T17:52:59.689Z,4.70
2022-12-03T17:55:37.007Z,4.20
2022-12-03T17:58:08.495Z,4.00
2022-12-03T18:00:35.767Z,4.20
2022-12-03T18:03:03.419Z,3.90
2022-12-03T18:05:30.817Z,3.90
2022-12-03T18:07:58.336Z,3.90
2022-12-03T18:10:26.119Z,3.90
2022-12-03T18:13:13.872Z,3.60
2022-12-03T18:15:44.852Z,3.90
2022-12-03T18:18:14.893Z,2.80
2022-12-03T18:20:44.306Z,4.40
2022-12-03T18:23:16.212Z,5.40
2022-12-03T18:25:46.106Z,4.00
2022-12-03T18:28:13.168Z,4.00
2022-12-03T18:30:50.641Z,3.90
2022-12-03T18:33:25.146Z,4.00
2022-12-03T18:36:00.199Z,4.00
2022-12-03T18:38:30.699Z,4.50
2022-12-03T18:41:00.941Z,4.00
2022-12-03T18:43:30.214Z,3.90
2022-12-03T18:45:58.022Z,4.00
2022-12-03T18:48:25.881Z,4.10
2022-12-03T18:50:53.098Z,3.60
2022-12-03T18:53:20.713Z,3.90
2022-12-03T18:55:48.207Z,3.90
2022-12-03T18:58:19.833Z,3.80
2022-12-03T19:00:48.905Z,3.90
2022-12-03T19:03:17.953Z,4.40
2022-12-03T19:05:45.502Z,3.70
2022-12-03T19:08:15.981Z,3.90
2022-12-03T19:10:44.612Z,4.80
2022-12-03T19:13:16.080Z,3.90
2022-12-03T19:15:43.752Z,2.70
2022-12-03T19:18:14.598Z,4.00
2022-12-03T19:20:43.386Z,3.90
2022-12-03T19:23:10.793Z,3.90
2022-12-03T19:25:39.601Z,3.90
2022-12-03T19:28:08.353Z,3.90
2022-12-03T19:30:36.499Z,3.80
2022-12-03T19:33:04.314Z,3.90
2022-12-03T19:35:33.185Z,3.80
2022-12-03T19:38:04.047Z,3.80
2022-12-03T19:40:33.130Z,3.80
2022-12-03T19:43:01.473Z,3.80
2022-12-03T19:45:30.452Z,3.20
2022-12-03T19:48:04.499Z,3.90
2022-12-03T19:50:32.972Z,2.90
2022-12-03T19:53:01.134Z,4.40
2022-12-03T19:55:31.483Z,3.80
2022-12-03T19:57:58.687Z,3.90
2022-12-03T20:00:30.324Z,4.30
2022-12-03T20:02:58.719Z,3.90
2022-12-03T20:05:33.010Z,3.90
2022-12-03T20:08:04.781Z,3.90
2022-12-03T20:10:45.227Z,3.40
2022-12-03T20:13:13.346Z,4.00
2022-12-03T20:15:44.158Z,3.90
2022-12-03T20:18:13.581Z,3.90
2022-12-03T20:20:43.955Z,4.40
2022-12-03T20:23:15.977Z,3.90
2022-12-03T20:25:45.325Z,3.90
2022-12-03T20:28:13.240Z,3.90
2022-12-03T20:30:43.014Z,3.60
2022-12-03T20:33:12.568Z,3.80
2022-12-03T20:35:40.325Z,3.90
2022-12-03T20:38:09.413Z,3.90
2022-12-03T20:40:37.695Z,4.30
2022-12-03T20:43:07.109Z,3.90
2022-12-03T20:45:34.943Z,3.80
2022-12-03T20:48:02.853Z,3.90
2022-12-03T20:50:30.543Z,3.90
2022-12-03T20:53:23.111Z,4.00
2022-12-03T20:55:59.544Z,4.00
2022-12-03T20:58:33.425Z,3.90
2022-12-03T21:01:23.506Z,3.90
2022-12-03T21:03:56.277Z,3.90
2022-12-03T21:06:27.236Z,4.00
2022-12-03T21:08:59.447Z,4.00
2022-12-03T21:11:33.979Z,4.00
2022-12-03T21:14:06.176Z,4.40
2022-12-03T21:19:31.164Z,4.00
2022-12-03T21:21:59.877Z,4.00
2022-12-03T21:24:30.241Z,3.90
2022-12-03T21:27:04.241Z,3.90
2022-12-03T21:29:32.973Z,4.40
2022-12-03T21:32:02.424Z,3.50
2022-12-03T21:34:36.138Z,4.60
2022-12-03T21:37:07.175Z,3.90
2022-12-03T21:39:35.158Z,3.90
2022-12-03T21:42:34.658Z,3.90
2022-12-03T21:44:55.728Z,3.90
2022-12-03T21:47:27.485Z,4.00
2022-12-03T21:49:57.209Z,3.70
2022-12-03T21:52:25.310Z,4.00
2022-12-03T21:54:53.227Z,3.80
2022-12-03T21:57:21.165Z,4.20
2022-12-03T21:59:50.966Z,3.80
2022-12-03T22:02:27.337Z,3.80
2022-12-03T22:04:57.485Z,5.10
2022-12-03T22:07:25.170Z,3.70
2022-12-03T22:09:56.532Z,3.60
2022-12-03T22:12:24.220Z,3.70
2022-12-03T22:14:57.272Z,3.80
2022-12-03T22:17:27.373Z,3.80
2022-12-03T22:19:55.229Z,3.50
2022-12-03T22:22:22.735Z,3.60
2022-12-03T22:24:49.974Z,3.70
2022-12-03T22:27:17.272Z,3.60
2022-12-03T22:29:44.652Z,3.60
2022-12-03T22:32:12.041Z,3.60
2022-12-03T22:34:41.125Z,3.60
2022-12-03T22:37:08.703Z,3.60
2022-12-03T22:39:36.048Z,3.50
2022-12-03T22:42:03.502Z,3.60
2022-12-03T22:44:30.998Z,3.60
2022-12-03T22:47:01.126Z,3.30
2022-12-03T22:49:29.039Z,3.50
2022-12-03T22:51:56.276Z,3.50
2022-12-03T22:54:24.266Z,3.30
2022-12-03T22:56:54.395Z,2.00
2022-12-03T22:59:21.825Z,3.70
2022-12-03T23:01:49.277Z,3.40
2022-12-03T23:04:16.924Z,3.40
2022-12-03T23:06:46.002Z,3.50
2022-12-03T23:09:13.593Z,4.00
2022-12-03T23:11:43.048Z,3.40
2022-12-03T23:14:10.512Z,3.40
2022-12-03T23:16:39.001Z,3.30
2022-12-03T23:19:06.435Z,3.30
2022-12-03T23:21:34.984Z,3.30
2022-12-03T23:24:04.443Z,3.30
2022-12-03T23:26:36.055Z,3.20
2022-12-03T23:29:04.745Z,3.20
2022-12-03T23:31:33.953Z,3.20
2022-12-03T23:34:01.948Z,3.60
2022-12-03T23:36:36.428Z,4.20
2022-12-03T23:39:04.508Z,2.80
2022-12-03T23:41:33.149Z,3.20
2022-12-03T23:44:04.629Z,2.40
2022-12-03T23:46:32.334Z,3.10
2022-12-03T23:49:00.102Z,3.20
2022-12-03T23:51:27.755Z,2.90
2022-12-03T23:53:56.299Z,3.30
2022-12-03T23:56:27.629Z,3.10
2022-12-03T23:58:57.512Z,3.00
